sensor_id;sensor_type;location;lat;lon;timestamp;pressure;altitude;pressure_sealevel;temperature;humidity
43420;BME280;29017;51.514;-0.178;2023-09-08T00:00:53;101171.94;;;24.13;83.58
43420;BME280;29017;51.514;-0.178;2023-09-08T00:03:20;101174.06;;;24.11;83.85
43420;BME280;29017;51.514;-0.178;2023-09-08T00:05:48;101168.91;;;24.10;84.05
43420;BME280;29017;51.514;-0.178;2023-09-08T00:08:16;101173.25;;;24.11;84.05
43420;BME280;29017;51.514;-0.178;2023-09-08T00:10:43;101177.19;;;24.08;84.06
43420;BME280;29017;51.514;-0.178;2023-09-08T00:13:10;101178.72;;;24.04;84.33
43420;BME280;29017;51.514;-0.178;2023-09-08T00:15:38;101176.03;;;24.04;84.59
43420;BME280;29017;51.514;-0.178;2023-09-08T00:18:05;101183.53;;;24.02;84.56
43420;BME280;29017;51.514;-0.178;2023-09-08T00:20:32;101178.16;;;24.02;84.68
43420;BME280;29017;51.514;-0.178;2023-09-08T00:23:00;101173.00;;;24.01;84.41
43420;BME280;29017;51.514;-0.178;2023-09-08T00:25:27;101174.16;;;24.05;85.54
43420;BME280;29017;51.514;-0.178;2023-09-08T00:27:54;101170.44;;;24.06;85.24
43420;BME280;29017;51.514;-0.178;2023-09-08T00:30:22;101173.69;;;24.08;84.71
43420;BME280;29017;51.514;-0.178;2023-09-08T00:32:49;101167.53;;;24.07;84.77
43420;BME280;29017;51.514;-0.178;2023-09-08T00:35:17;101167.75;;;24.06;84.54
43420;BME280;29017;51.514;-0.178;2023-09-08T00:37:44;101174.41;;;24.03;82.65
43420;BME280;29017;51.514;-0.178;2023-09-08T00:40:11;101163.88;;;24.02;82.49
43420;BME280;29017;51.514;-0.178;2023-09-08T00:42:38;101163.63;;;24.03;82.81
43420;BME280;29017;51.514;-0.178;2023-09-08T00:45:06;101166.31;;;24.03;82.22
43420;BME280;29017;51.514;-0.178;2023-09-08T00:47:33;101173.34;;;24.04;81.33
43420;BME280;29017;51.514;-0.178;2023-09-08T00:50:04;101160.13;;;24.03;81.18
43420;BME280;29017;51.514;-0.178;2023-09-08T00:52:32;101164.94;;;24.01;81.21
43420;BME280;29017;51.514;-0.178;2023-09-08T00:55:00;101166.81;;;24.00;80.31
43420;BME280;29017;51.514;-0.178;2023-09-08T00:57:28;101164.94;;;24.01;80.80
43420;BME280;29017;51.514;-0.178;2023-09-08T00:59:56;101167.63;;;24.01;81.55
43420;BME280;29017;51.514;-0.178;2023-09-08T01:02:23;101170.53;;;23.99;81.35
43420;BME280;29017;51.514;-0.178;2023-09-08T01:04:50;101171.34;;;24.00;81.49
43420;BME280;29017;51.514;-0.178;2023-09-08T01:07:19;101178.03;;;23.97;80.85
43420;BME280;29017;51.514;-0.178;2023-09-08T01:09:47;101181.78;;;23.96;81.66
43420;BME280;29017;51.514;-0.178;2023-09-08T01:12:15;101170.63;;;23.93;81.42
43420;BME280;29017;51.514;-0.178;2023-09-08T01:14:43;101172.75;;;23.91;81.47
43420;BME280;29017;51.514;-0.178;2023-09-08T01:17:10;101170.63;;;23.93;81.39
43420;BME280;29017;51.514;-0.178;2023-09-08T01:19:39;101170.91;;;23.91;81.55
43420;BME280;29017;51.514;-0.178;2023-09-08T01:25:09;101157.06;;;23.87;82.48
43420;BME280;29017;51.514;-0.178;2023-09-08T01:27:45;101156.50;;;23.85;81.81
43420;BME280;29017;51.514;-0.178;2023-09-08T01:30:14;101156.72;;;23.84;81.68
43420;BME280;29017;51.514;-0.178;2023-09-08T01:32:43;101157.56;;;23.84;80.92
43420;BME280;29017;51.514;-0.178;2023-09-08T01:35:12;101158.59;;;23.83;81.09
43420;BME280;29017;51.514;-0.178;2023-09-08T01:37:41;101161.75;;;23.80;81.06
43420;BME280;29017;51.514;-0.178;2023-09-08T01:40:09;101152.53;;;23.76;80.89
43420;BME280;29017;51.514;-0.178;2023-09-08T01:42:38;101151.94;;;23.74;80.87
43420;BME280;29017;51.514;-0.178;2023-09-08T01:45:06;101150.28;;;23.73;81.54
43420;BME280;29017;51.514;-0.178;2023-09-08T01:47:34;101151.31;;;23.72;81.53
43420;BME280;29017;51.514;-0.178;2023-09-08T01:50:02;101158.59;;;23.72;81.41
43420;BME280;29017;51.514;-0.178;2023-09-08T01:52:29;101162.91;;;23.73;81.88
43420;BME280;29017;51.514;-0.178;2023-09-08T01:54:56;101158.59;;;23.72;81.40
43420;BME280;29017;51.514;-0.178;2023-09-08T01:57:23;101151.56;;;23.71;81.23
43420;BME280;29017;51.514;-0.178;2023-09-08T01:59:51;101154.28;;;23.71;81.21
43420;BME280;29017;51.514;-0.178;2023-09-08T02:02:18;101167.72;;;23.71;80.79
43420;BME280;29017;51.514;-0.178;2023-09-08T02:04:45;101161.72;;;23.69;80.81
43420;BME280;29017;51.514;-0.178;2023-09-08T02:07:13;101163.84;;;23.67;81.00
43420;BME280;29017;51.514;-0.178;2023-09-08T02:09:40;101163.25;;;23.65;81.15
43420;BME280;29017;51.514;-0.178;2023-09-08T02:12:09;101164.50;;;23.62;80.74
43420;BME280;29017;51.514;-0.178;2023-09-08T02:14:37;101151.31;;;23.61;81.05
43420;BME280;29017;51.514;-0.178;2023-09-08T02:17:04;101148.84;;;23.59;81.07
43420;BME280;29017;51.514;-0.178;2023-09-08T02:19:33;101159.59;;;23.59;80.86
43420;BME280;29017;51.514;-0.178;2023-09-08T02:22:00;101157.97;;;23.58;80.53
43420;BME280;29017;51.514;-0.178;2023-09-08T02:24:27;101152.03;;;23.56;80.54
43420;BME280;29017;51.514;-0.178;2023-09-08T02:26:55;101159.25;;;23.56;80.30
43420;BME280;29017;51.514;-0.178;2023-09-08T02:29:22;101165.69;;;23.55;80.28
43420;BME280;29017;51.514;-0.178;2023-09-08T02:31:49;101152.47;;;23.53;81.03
43420;BME280;29017;51.514;-0.178;2023-09-08T02:34:17;101156.44;;;23.51;81.06
43420;BME280;29017;51.514;-0.178;2023-09-08T02:36:44;101153.75;;;23.51;80.70
43420;BME280;29017;51.514;-0.178;2023-09-08T02:39:14;101142.19;;;23.50;80.61
43420;BME280;29017;51.514;-0.178;2023-09-08T02:41:42;101151.88;;;23.51;79.95
43420;BME280;29017;51.514;-0.178;2023-09-08T02:44:09;101147.78;;;23.49;80.13
43420;BME280;29017;51.514;-0.178;2023-09-08T02:46:36;101150.69;;;23.47;80.72
43420;BME280;29017;51.514;-0.178;2023-09-08T02:49:04;101149.25;;;23.44;81.07
43420;BME280;29017;51.514;-0.178;2023-09-08T02:51:31;101162.91;;;23.43;80.74
43420;BME280;29017;51.514;-0.178;2023-09-08T02:53:58;101147.50;;;23.38;81.08
43420;BME280;29017;51.514;-0.178;2023-09-08T02:56:25;101147.72;;;23.37;81.83
43420;BME280;29017;51.514;-0.178;2023-09-08T02:58:53;101154.38;;;23.34;81.22
43420;BME280;29017;51.514;-0.178;2023-09-08T03:01:20;101156.44;;;23.32;81.22
43420;BME280;29017;51.514;-0.178;2023-09-08T03:03:47;101145.97;;;23.31;81.33
43420;BME280;29017;51.514;-0.178;2023-09-08T03:06:20;101148.88;;;23.29;80.81
43420;BME280;29017;51.514;-0.178;2023-09-08T03:08:48;101139.38;;;23.27;81.38
43420;BME280;29017;51.514;-0.178;2023-09-08T03:11:15;101135.09;;;23.26;80.84
43420;BME280;29017;51.514;-0.178;2023-09-08T03:13:42;101140.88;;;23.23;81.07
43420;BME280;29017;51.514;-0.178;2023-09-08T03:16:10;101145.91;;;23.19;81.38
43420;BME280;29017;51.514;-0.178;2023-09-08T03:18:38;101136.22;;;23.18;81.27
43420;BME280;29017;51.514;-0.178;2023-09-08T03:21:06;101140.97;;;23.16;81.52
43420;BME280;29017;51.514;-0.178;2023-09-08T03:26:05;101145.31;;;23.17;81.19
43420;BME280;29017;51.514;-0.178;2023-09-08T03:28:33;101130.00;;;23.18;80.85
43420;BME280;29017;51.514;-0.178;2023-09-08T03:31:02;101140.97;;;23.16;81.15
43420;BME280;29017;51.514;-0.178;2023-09-08T03:33:30;101144.47;;;23.17;81.68
43420;BME280;29017;51.514;-0.178;2023-09-08T03:35:58;101153.84;;;23.14;81.00
43420;BME280;29017;51.514;-0.178;2023-09-08T03:38:25;101144.94;;;23.14;81.30
43420;BME280;29017;51.514;-0.178;2023-09-08T03:40:52;101143.31;;;23.13;80.77
43420;BME280;29017;51.514;-0.178;2023-09-08T03:43:20;101136.53;;;23.10;80.81
43420;BME280;29017;51.514;-0.178;2023-09-08T03:45:47;101132.00;;;23.11;81.38
43420;BME280;29017;51.514;-0.178;2023-09-08T03:48:14;101133.25;;;23.08;81.26
43420;BME280;29017;51.514;-0.178;2023-09-08T03:50:42;101128.91;;;23.07;81.39
43420;BME280;29017;51.514;-0.178;2023-09-08T03:53:12;101129.75;;;23.08;81.91
43420;BME280;29017;51.514;-0.178;2023-09-08T03:55:40;101131.84;;;23.06;81.66
43420;BME280;29017;51.514;-0.178;2023-09-08T03:58:07;101132.66;;;23.06;81.97
43420;BME280;29017;51.514;-0.178;2023-09-08T04:00:35;101137.22;;;23.06;81.70
43420;BME280;29017;51.514;-0.178;2023-09-08T04:03:03;101135.34;;;23.06;81.47
43420;BME280;29017;51.514;-0.178;2023-09-08T04:05:30;101127.28;;;23.06;81.18
43420;BME280;29017;51.514;-0.178;2023-09-08T04:07:57;101129.16;;;23.06;81.70
43420;BME280;29017;51.514;-0.178;2023-09-08T04:10:25;101133.94;;;23.03;81.27
43420;BME280;29017;51.514;-0.178;2023-09-08T04:12:52;101137.09;;;23.00;81.63
43420;BME280;29017;51.514;-0.178;2023-09-08T04:15:19;101147.22;;;22.98;81.27
43420;BME280;29017;51.514;-0.178;2023-09-08T04:17:47;101148.25;;;22.97;81.99
43420;BME280;29017;51.514;-0.178;2023-09-08T04:20:14;101147.22;;;22.98;81.81
43420;BME280;29017;51.514;-0.178;2023-09-08T04:22:42;101146.63;;;22.96;82.09
43420;BME280;29017;51.514;-0.178;2023-09-08T04:25:10;101140.69;;;22.94;81.87
43420;BME280;29017;51.514;-0.178;2023-09-08T04:27:38;101144.19;;;22.95;82.14
43420;BME280;29017;51.514;-0.178;2023-09-08T04:30:06;101152.22;;;22.95;81.72
43420;BME280;29017;51.514;-0.178;2023-09-08T04:32:33;101147.06;;;22.93;81.63
43420;BME280;29017;51.514;-0.178;2023-09-08T04:35:01;101146.25;;;22.93;82.10
43420;BME280;29017;51.514;-0.178;2023-09-08T04:37:28;101146.25;;;22.93;81.52
43420;BME280;29017;51.514;-0.178;2023-09-08T04:39:57;101148.13;;;22.92;81.64
43420;BME280;29017;51.514;-0.178;2023-09-08T04:42:24;101148.59;;;22.89;81.69
43420;BME280;29017;51.514;-0.178;2023-09-08T04:44:52;101147.75;;;22.89;81.89
43420;BME280;29017;51.514;-0.178;2023-09-08T04:47:20;101150.44;;;22.89;81.96
43420;BME280;29017;51.514;-0.178;2023-09-08T04:49:47;101153.13;;;22.89;82.25
43420;BME280;29017;51.514;-0.178;2023-09-08T04:52:14;101158.50;;;22.89;82.32
43420;BME280;29017;51.514;-0.178;2023-09-08T04:54:42;101160.16;;;22.90;81.78
43420;BME280;29017;51.514;-0.178;2023-09-08T04:57:09;101160.16;;;22.90;81.42
43420;BME280;29017;51.514;-0.178;2023-09-08T04:59:48;101166.78;;;22.87;81.11
43420;BME280;29017;51.514;-0.178;2023-09-08T05:02:16;101162.44;;;22.86;81.16
43420;BME280;29017;51.514;-0.178;2023-09-08T05:04:45;101155.88;;;22.82;81.29
43420;BME280;29017;51.514;-0.178;2023-09-08T05:07:12;101163.38;;;22.80;81.93
43420;BME280;29017;51.514;-0.178;2023-09-08T05:09:40;101168.13;;;22.78;81.86
43420;BME280;29017;51.514;-0.178;2023-09-08T05:12:08;101171.84;;;22.77;81.37
43420;BME280;29017;51.514;-0.178;2023-09-08T05:14:35;101161.94;;;22.78;81.54
43420;BME280;29017;51.514;-0.178;2023-09-08T05:17:03;101176.63;;;22.75;80.95
43420;BME280;29017;51.514;-0.178;2023-09-08T05:19:30;101179.31;;;22.75;80.46
43420;BME280;29017;51.514;-0.178;2023-09-08T05:21:57;101173.94;;;22.75;81.08
43420;BME280;29017;51.514;-0.178;2023-09-08T05:24:25;101168.34;;;22.77;80.40
43420;BME280;29017;51.514;-0.178;2023-09-08T05:26:53;101176.63;;;22.75;80.06
43420;BME280;29017;51.514;-0.178;2023-09-08T05:29:21;101179.53;;;22.74;80.84
43420;BME280;29017;51.514;-0.178;2023-09-08T05:31:48;101184.91;;;22.74;80.75
43420;BME280;29017;51.514;-0.178;2023-09-08T05:34:15;101184.28;;;22.72;80.49
43420;BME280;29017;51.514;-0.178;2023-09-08T05:36:43;101183.69;;;22.70;80.99
43420;BME280;29017;51.514;-0.178;2023-09-08T05:39:10;101188.22;;;22.69;80.07
43420;BME280;29017;51.514;-0.178;2023-09-08T05:41:38;101187.19;;;22.70;80.35
43420;BME280;29017;51.514;-0.178;2023-09-08T05:44:05;101185.53;;;22.69;80.50
43420;BME280;29017;51.514;-0.178;2023-09-08T05:46:32;101179.56;;;22.67;80.42
43420;BME280;29017;51.514;-0.178;2023-09-08T05:49:00;101178.53;;;22.68;81.22
43420;BME280;29017;51.514;-0.178;2023-09-08T05:51:27;101168.84;;;22.67;81.12
43420;BME280;29017;51.514;-0.178;2023-09-08T05:53:54;101168.00;;;22.67;81.38
43420;BME280;29017;51.514;-0.178;2023-09-08T05:56:24;101180.03;;;22.64;81.37
43420;BME280;29017;51.514;-0.178;2023-09-08T05:58:53;101182.72;;;22.64;81.27
43420;BME280;29017;51.514;-0.178;2023-09-08T06:01:20;101192.63;;;22.64;81.43
43420;BME280;29017;51.514;-0.178;2023-09-08T06:03:48;101182.72;;;22.64;81.82
43420;BME280;29017;51.514;-0.178;2023-09-08T06:06:16;101190.75;;;22.64;81.44
43420;BME280;29017;51.514;-0.178;2023-09-08T06:08:43;101185.16;;;22.66;81.79
43420;BME280;29017;51.514;-0.178;2023-09-08T06:11:10;101186.38;;;22.70;81.16
43420;BME280;29017;51.514;-0.178;2023-09-08T06:13:39;101191.31;;;22.73;80.95
43420;BME280;29017;51.514;-0.178;2023-09-08T06:16:06;101195.41;;;22.75;80.69
43420;BME280;29017;51.514;-0.178;2023-09-08T06:18:34;101193.31;;;22.77;80.75
43420;BME280;29017;51.514;-0.178;2023-09-08T06:21:07;101196.59;;;22.79;80.23
43420;BME280;29017;51.514;-0.178;2023-09-08T06:23:35;101194.50;;;22.81;80.92
43420;BME280;29017;51.514;-0.178;2023-09-08T06:26:03;101199.88;;;22.81;80.74
43420;BME280;29017;51.514;-0.178;2023-09-08T06:28:31;101209.34;;;22.84;80.70
43420;BME280;29017;51.514;-0.178;2023-09-08T06:30:59;101199.66;;;22.83;81.04
43420;BME280;29017;51.514;-0.178;2023-09-08T06:33:26;101202.13;;;22.84;81.56
43420;BME280;29017;51.514;-0.178;2023-09-08T06:35:55;101205.63;;;22.85;81.72
43420;BME280;29017;51.514;-0.178;2023-09-08T06:38:25;101211.00;;;22.85;81.37
43420;BME280;29017;51.514;-0.178;2023-09-08T06:40:53;101209.13;;;22.85;81.62
43420;BME280;29017;51.514;-0.178;2023-09-08T06:43:22;101210.75;;;22.86;81.59
43420;BME280;29017;51.514;-0.178;2023-09-08T06:45:49;101215.28;;;22.86;81.66
43420;BME280;29017;51.514;-0.178;2023-09-08T06:48:17;101210.53;;;22.88;82.06
43420;BME280;29017;51.514;-0.178;2023-09-08T06:50:44;101213.00;;;22.89;81.74
43420;BME280;29017;51.514;-0.178;2023-09-08T06:53:11;101219.19;;;22.90;82.42
43420;BME280;29017;51.514;-0.178;2023-09-08T06:55:39;101224.31;;;22.91;82.16
43420;BME280;29017;51.514;-0.178;2023-09-08T06:58:10;101229.47;;;22.93;82.42
43420;BME280;29017;51.514;-0.178;2023-09-08T07:00:39;101215.03;;;22.94;82.10
43420;BME280;29017;51.514;-0.178;2023-09-08T07:03:06;101214.81;;;22.95;81.81
43420;BME280;29017;51.514;-0.178;2023-09-08T07:05:35;101215.59;;;22.96;81.63
43420;BME280;29017;51.514;-0.178;2023-09-08T07:08:03;101225.69;;;23.00;81.67
43420;BME280;29017;51.514;-0.178;2023-09-08T07:10:30;101220.31;;;23.00;81.17
43420;BME280;29017;51.514;-0.178;2023-09-08T07:12:57;101219.03;;;23.03;81.04
43420;BME280;29017;51.514;-0.178;2023-09-08T07:15:25;101231.41;;;23.04;81.20
43420;BME280;29017;51.514;-0.178;2023-09-08T07:17:52;101223.94;;;23.06;81.02
43420;BME280;29017;51.514;-0.178;2023-09-08T07:20:20;101228.66;;;23.11;81.90
43420;BME280;29017;51.514;-0.178;2023-09-08T07:22:47;101230.88;;;23.14;81.24
43420;BME280;29017;51.514;-0.178;2023-09-08T07:25:14;101223.19;;;23.17;81.21
43420;BME280;29017;51.514;-0.178;2023-09-08T07:27:42;101221.31;;;23.18;80.83
43420;BME280;29017;51.514;-0.178;2023-09-08T07:30:09;101223.78;;;23.19;80.87
43420;BME280;29017;51.514;-0.178;2023-09-08T07:32:37;101214.22;;;23.23;81.21
43420;BME280;29017;51.514;-0.178;2023-09-08T07:35:05;101217.88;;;23.29;80.78
43420;BME280;29017;51.514;-0.178;2023-09-08T07:37:41;101221.53;;;23.34;80.74
43420;BME280;29017;51.514;-0.178;2023-09-08T07:40:10;101226.22;;;23.39;81.83
43420;BME280;29017;51.514;-0.178;2023-09-08T07:42:38;101235.88;;;23.47;81.90
43420;BME280;29017;51.514;-0.178;2023-09-08T07:45:12;101240.56;;;23.51;81.46
43420;BME280;29017;51.514;-0.178;2023-09-08T07:47:41;101236.38;;;23.55;80.93
43420;BME280;29017;51.514;-0.178;2023-09-08T07:52:49;101244.78;;;23.59;81.20
43420;BME280;29017;51.514;-0.178;2023-09-08T07:55:17;101236.50;;;23.60;80.92
43420;BME280;29017;51.514;-0.178;2023-09-08T07:57:46;101237.06;;;23.62;81.13
43420;BME280;29017;51.514;-0.178;2023-09-08T08:00:14;101223.41;;;23.64;81.09
43420;BME280;29017;51.514;-0.178;2023-09-08T08:02:48;101227.97;;;23.63;81.38
43420;BME280;29017;51.514;-0.178;2023-09-08T08:05:15;101238.72;;;23.63;81.64
43420;BME280;29017;51.514;-0.178;2023-09-08T08:07:44;101245.75;;;23.64;81.03
43420;BME280;29017;51.514;-0.178;2023-09-08T08:10:12;101248.78;;;23.68;82.92
43420;BME280;29017;51.514;-0.178;2023-09-08T08:12:41;101245.88;;;23.69;82.87
43420;BME280;29017;51.514;-0.178;2023-09-08T08:15:09;101246.22;;;23.73;83.34
43420;BME280;29017;51.514;-0.178;2023-09-08T08:17:39;101245.78;;;23.76;82.71
43420;BME280;29017;51.514;-0.178;2023-09-08T08:20:08;101241.59;;;23.80;82.18
43420;BME280;29017;51.514;-0.178;2023-09-08T08:22:36;101244.88;;;23.82;80.88
43420;BME280;29017;51.514;-0.178;2023-09-08T08:25:05;101242.75;;;23.84;81.09
43420;BME280;29017;51.514;-0.178;2023-09-08T08:27:32;101245.44;;;23.84;80.99
43420;BME280;29017;51.514;-0.178;2023-09-08T08:30:00;101242.66;;;23.91;82.64
43420;BME280;29017;51.514;-0.178;2023-09-08T08:32:28;101243.00;;;23.94;81.44
43420;BME280;29017;51.514;-0.178;2023-09-08T08:34:55;101251.22;;;23.99;81.54
43420;BME280;29017;51.514;-0.178;2023-09-08T08:37:24;101243.75;;;24.01;80.28
43420;BME280;29017;51.514;-0.178;2023-09-08T08:39:52;101253.81;;;24.06;79.78
43420;BME280;29017;51.514;-0.178;2023-09-08T08:42:19;101246.91;;;24.10;79.86
43420;BME280;29017;51.514;-0.178;2023-09-08T08:44:49;101245.63;;;24.12;79.47
43420;BME280;29017;51.514;-0.178;2023-09-08T08:47:19;101241.44;;;24.16;79.67
43420;BME280;29017;51.514;-0.178;2023-09-08T08:49:48;101242.75;;;24.25;80.35
43420;BME280;29017;51.514;-0.178;2023-09-08T08:52:16;101244.75;;;24.30;79.20
43420;BME280;29017;51.514;-0.178;2023-09-08T08:54:45;101237.84;;;24.34;78.66
43420;BME280;29017;51.514;-0.178;2023-09-08T08:57:14;101243.59;;;24.38;79.07
43420;BME280;29017;51.514;-0.178;2023-09-08T08:59:42;101250.97;;;24.42;78.35
43420;BME280;29017;51.514;-0.178;2023-09-08T09:02:11;101249.44;;;24.46;78.08
43420;BME280;29017;51.514;-0.178;2023-09-08T09:04:39;101244.41;;;24.50;78.65
43420;BME280;29017;51.514;-0.178;2023-09-08T09:07:07;101245.56;;;24.54;78.11
43420;BME280;29017;51.514;-0.178;2023-09-08T09:09:35;101246.75;;;24.58;77.91
43420;BME280;29017;51.514;-0.178;2023-09-08T09:12:02;101246.03;;;24.62;77.53
43420;BME280;29017;51.514;-0.178;2023-09-08T09:14:34;101248.38;;;24.70;77.65
43420;BME280;29017;51.514;-0.178;2023-09-08T09:17:02;101256.56;;;24.76;77.86
43420;BME280;29017;51.514;-0.178;2023-09-08T09:19:31;101255.03;;;24.80;76.57
43420;BME280;29017;51.514;-0.178;2023-09-08T09:21:59;101257.25;;;24.83;76.54
43420;BME280;29017;51.514;-0.178;2023-09-08T09:24:37;101253.88;;;24.87;76.76
43420;BME280;29017;51.514;-0.178;2023-09-08T09:27:11;101256.91;;;24.91;77.13
43420;BME280;29017;51.514;-0.178;2023-09-08T09:29:49;101255.38;;;24.95;77.36
43420;BME280;29017;51.514;-0.178;2023-09-08T09:32:23;101262.75;;;24.99;76.82
43420;BME280;29017;51.514;-0.178;2023-09-08T09:34:53;101255.25;;;25.01;76.87
43420;BME280;29017;51.514;-0.178;2023-09-08T09:37:21;101246.13;;;25.02;76.44
43420;BME280;29017;51.514;-0.178;2023-09-08T09:39:49;101254.53;;;25.06;77.05
43420;BME280;29017;51.514;-0.178;2023-09-08T09:42:18;101246.22;;;25.07;76.46
43420;BME280;29017;51.514;-0.178;2023-09-08T09:44:48;101247.88;;;25.08;76.49
43420;BME280;29017;51.514;-0.178;2023-09-08T09:47:16;101254.66;;;25.11;76.76
43420;BME280;29017;51.514;-0.178;2023-09-08T09:49:46;101256.06;;;25.13;77.11
43420;BME280;29017;51.514;-0.178;2023-09-08T09:52:21;101256.63;;;25.16;77.48
43420;BME280;29017;51.514;-0.178;2023-09-08T09:54:53;101256.16;;;25.19;77.57
43420;BME280;29017;51.514;-0.178;2023-09-08T09:57:22;101256.50;;;25.22;76.93
43420;BME280;29017;51.514;-0.178;2023-09-08T09:59:51;101250.63;;;25.25;76.66
43420;BME280;29017;51.514;-0.178;2023-09-08T10:02:20;101256.09;;;25.30;76.97
43420;BME280;29017;51.514;-0.178;2023-09-08T10:04:49;101264.56;;;25.34;75.89
43420;BME280;29017;51.514;-0.178;2023-09-08T10:07:18;101263.84;;;25.38;75.73
43420;BME280;29017;51.514;-0.178;2023-09-08T10:09:46;101262.88;;;25.44;76.71
43420;BME280;29017;51.514;-0.178;2023-09-08T10:12:14;101260.28;;;25.49;76.56
43420;BME280;29017;51.514;-0.178;2023-09-08T10:14:43;101266.34;;;25.57;75.63
43420;BME280;29017;51.514;-0.178;2023-09-08T10:17:15;101268.09;;;25.63;75.23
43420;BME280;29017;51.514;-0.178;2023-09-08T10:19:48;101265.00;;;25.71;74.94
43420;BME280;29017;51.514;-0.178;2023-09-08T10:22:20;101257.81;;;25.76;74.44
43420;BME280;29017;51.514;-0.178;2023-09-08T10:24:54;101270.56;;;25.81;75.20
43420;BME280;29017;51.514;-0.178;2023-09-08T10:27:23;101263.66;;;25.85;74.72
43420;BME280;29017;51.514;-0.178;2023-09-08T10:29:51;101266.44;;;25.90;73.88
43420;BME280;29017;51.514;-0.178;2023-09-08T10:32:21;101268.97;;;25.96;74.80
43420;BME280;29017;51.514;-0.178;2023-09-08T10:34:51;101268.59;;;26.05;73.93
43420;BME280;29017;51.514;-0.178;2023-09-08T10:37:23;101261.13;;;26.12;73.61
43420;BME280;29017;51.514;-0.178;2023-09-08T10:42:46;101262.81;;;26.29;73.00
43420;BME280;29017;51.514;-0.178;2023-09-08T10:45:18;101259.69;;;26.37;72.54
43420;BME280;29017;51.514;-0.178;2023-09-08T10:50:18;101263.94;;;26.50;72.19
43420;BME280;29017;51.514;-0.178;2023-09-08T10:53:04;101255.41;;;26.58;71.71
43420;BME280;29017;51.514;-0.178;2023-09-08T10:55:36;101261.69;;;26.64;71.41
43420;BME280;29017;51.514;-0.178;2023-09-08T10:58:04;101266.94;;;26.70;71.45
43420;BME280;29017;51.514;-0.178;2023-09-08T11:00:43;101254.56;;;26.74;71.31
43420;BME280;29017;51.514;-0.178;2023-09-08T11:03:11;101260.94;;;26.85;70.41
43420;BME280;29017;51.514;-0.178;2023-09-08T11:05:39;101264.84;;;26.94;70.41
43420;BME280;29017;51.514;-0.178;2023-09-08T11:08:07;101271.97;;;27.00;70.68
43420;BME280;29017;51.514;-0.178;2023-09-08T11:10:34;101268.75;;;27.03;70.30
43420;BME280;29017;51.514;-0.178;2023-09-08T11:13:01;101266.94;;;27.09;70.18
43420;BME280;29017;51.514;-0.178;2023-09-08T11:15:30;101260.78;;;27.13;70.05
43420;BME280;29017;51.514;-0.178;2023-09-08T11:18:05;101256.00;;;27.20;69.51
43420;BME280;29017;51.514;-0.178;2023-09-08T11:20:33;101257.44;;;27.28;69.45
43420;BME280;29017;51.514;-0.178;2023-09-08T11:23:01;101258.88;;;27.36;68.87
43420;BME280;29017;51.514;-0.178;2023-09-08T11:25:28;101266.28;;;27.45;68.28
43420;BME280;29017;51.514;-0.178;2023-09-08T11:27:57;101265.34;;;27.56;68.47
43420;BME280;29017;51.514;-0.178;2023-09-08T11:30:26;101255.13;;;27.63;67.24
43420;BME280;29017;51.514;-0.178;2023-09-08T11:32:57;101256.53;;;27.66;67.68
43420;BME280;29017;51.514;-0.178;2023-09-08T11:35:27;101260.59;;;27.69;67.19
43420;BME280;29017;51.514;-0.178;2023-09-08T11:37:59;101256.81;;;27.70;66.25
43420;BME280;29017;51.514;-0.178;2023-09-08T11:40:26;101261.16;;;27.71;66.31
43420;BME280;29017;51.514;-0.178;2023-09-08T11:42:54;101253.06;;;27.71;66.67
43420;BME280;29017;51.514;-0.178;2023-09-08T11:45:25;101254.44;;;27.73;66.06
43420;BME280;29017;51.514;-0.178;2023-09-08T11:48:04;101257.25;;;27.83;64.61
43420;BME280;29017;51.514;-0.178;2023-09-08T11:50:33;101251.09;;;27.93;64.99
43420;BME280;29017;51.514;-0.178;2023-09-08T11:53:02;101248.97;;;28.00;64.18
43420;BME280;29017;51.514;-0.178;2023-09-08T11:55:31;101250.66;;;28.06;63.81
43420;BME280;29017;51.514;-0.178;2023-09-08T11:57:58;101253.94;;;28.08;62.71
43420;BME280;29017;51.514;-0.178;2023-09-08T12:00:28;101252.59;;;28.11;63.59
43420;BME280;29017;51.514;-0.178;2023-09-08T12:03:09;101243.94;;;28.08;63.99
43420;BME280;29017;51.514;-0.178;2023-09-08T12:05:38;101243.66;;;28.10;63.54
43420;BME280;29017;51.514;-0.178;2023-09-08T12:08:06;101246.97;;;28.12;63.56
43420;BME280;29017;51.514;-0.178;2023-09-08T12:10:43;101240.78;;;28.17;63.23
43420;BME280;29017;51.514;-0.178;2023-09-08T12:13:11;101235.34;;;28.17;63.60
43420;BME280;29017;51.514;-0.178;2023-09-08T12:15:45;101244.03;;;28.19;63.19
43420;BME280;29017;51.514;-0.178;2023-09-08T12:18:14;101235.09;;;28.18;60.72
43420;BME280;29017;51.514;-0.178;2023-09-08T12:20:43;101235.97;;;28.24;60.81
43420;BME280;29017;51.514;-0.178;2023-09-08T12:23:20;101235.47;;;28.32;60.28
43420;BME280;29017;51.514;-0.178;2023-09-08T12:25:51;101237.94;;;28.38;61.03
43420;BME280;29017;51.514;-0.178;2023-09-08T12:28:21;101242.84;;;28.41;61.13
43420;BME280;29017;51.514;-0.178;2023-09-08T12:30:49;101228.75;;;28.44;60.38
43420;BME280;29017;51.514;-0.178;2023-09-08T12:33:17;101245.31;;;28.48;59.89
43420;BME280;29017;51.514;-0.178;2023-09-08T12:35:48;101230.72;;;28.49;59.33
43420;BME280;29017;51.514;-0.178;2023-09-08T12:38:18;101240.72;;;28.48;58.49
43420;BME280;29017;51.514;-0.178;2023-09-08T12:40:45;101244.75;;;28.46;58.97
43420;BME280;29017;51.514;-0.178;2023-09-08T12:43:13;101236.38;;;28.47;59.05
43420;BME280;29017;51.514;-0.178;2023-09-08T12:45:54;101236.13;;;28.49;59.29
43420;BME280;29017;51.514;-0.178;2023-09-08T12:48:22;101231.53;;;28.49;59.32
43420;BME280;29017;51.514;-0.178;2023-09-08T12:50:49;101228.81;;;28.49;58.69
43420;BME280;29017;51.514;-0.178;2023-09-08T12:53:16;101222.84;;;28.47;59.00
43420;BME280;29017;51.514;-0.178;2023-09-08T12:55:46;101226.63;;;28.46;58.82
43420;BME280;29017;51.514;-0.178;2023-09-08T12:58:13;101221.19;;;28.46;58.60
43420;BME280;29017;51.514;-0.178;2023-09-08T13:00:41;101220.38;;;28.46;58.93